sensor_id;sensor_type;location;lat;lon;timestamp;temperature;humidity
37322;DHT22;23697;48.684;9.032;2023-04-16T00:00:51;6.70;90.60
37322;DHT22;23697;48.684;9.032;2023-04-16T00:03:19;6.70;90.70
37322;DHT22;23697;48.684;9.032;2023-04-16T00:05:46;6.70;90.70
37322;DHT22;23697;48.684;9.032;2023-04-16T00:08:13;6.70;90.70
37322;DHT22;23697;48.684;9.032;2023-04-16T00:10:40;6.70;90.60
37322;DHT22;23697;48.684;9.032;2023-04-16T00:13:06;6.80;90.70
37322;DHT22;23697;48.684;9.032;2023-04-16T00:15:33;6.80;90.70
37322;DHT22;23697;48.684;9.032;2023-04-16T00:18:00;6.70;90.60
37322;DHT22;23697;48.684;9.032;2023-04-16T00:20:28;6.70;90.60
37322;DHT22;23697;48.684;9.032;2023-04-16T00:22:54;6.70;90.50
37322;DHT22;23697;48.684;9.032;2023-04-16T00:25:21;6.70;90.60
37322;DHT22;23697;48.684;9.032;2023-04-16T00:27:48;6.70;90.60
37322;DHT22;23697;48.684;9.032;2023-04-16T00:30:14;6.70;90.60
37322;DHT22;23697;48.684;9.032;2023-04-16T00:32:41;6.70;90.60
37322;DHT22;23697;48.684;9.032;2023-04-16T00:35:08;6.60;90.60
37322;DHT22;23697;48.684;9.032;2023-04-16T00:37:36;6.70;90.70
37322;DHT22;23697;48.684;9.032;2023-04-16T00:40:03;6.60;90.60
37322;DHT22;23697;48.684;9.032;2023-04-16T00:42:29;6.60;90.60
37322;DHT22;23697;48.684;9.032;2023-04-16T00:44:56;6.70;90.60
37322;DHT22;23697;48.684;9.032;2023-04-16T00:47:23;6.70;90.70
37322;DHT22;23697;48.684;9.032;2023-04-16T00:49:49;6.70;90.70
37322;DHT22;23697;48.684;9.032;2023-04-16T00:52:16;6.70;90.70
37322;DHT22;23697;48.684;9.032;2023-04-16T00:54:44;6.70;90.80
37322;DHT22;23697;48.684;9.032;2023-04-16T00:57:11;6.70;90.80
37322;DHT22;23697;48.684;9.032;2023-04-16T00:59:39;6.60;90.80
37322;DHT22;23697;48.684;9.032;2023-04-16T01:02:05;6.70;90.80
37322;DHT22;23697;48.684;9.032;2023-04-16T01:04:32;6.70;90.80
37322;DHT22;23697;48.684;9.032;2023-04-16T01:07:00;6.60;90.70
37322;DHT22;23697;48.684;9.032;2023-04-16T01:09:26;6.80;90.80
37322;DHT22;23697;48.684;9.032;2023-04-16T01:11:54;6.70;90.80
37322;DHT22;23697;48.684;9.032;2023-04-16T01:14:21;6.70;90.80
37322;DHT22;23697;48.684;9.032;2023-04-16T01:16:48;6.70;90.80
37322;DHT22;23697;48.684;9.032;2023-04-16T01:19:14;6.70;90.80
37322;DHT22;23697;48.684;9.032;2023-04-16T01:21:42;6.60;90.80
37322;DHT22;23697;48.684;9.032;2023-04-16T01:24:09;6.60;90.80
37322;DHT22;23697;48.684;9.032;2023-04-16T01:26:35;6.60;90.80
37322;DHT22;23697;48.684;9.032;2023-04-16T01:29:02;6.70;90.90
37322;DHT22;23697;48.684;9.032;2023-04-16T01:31:29;6.70;90.90
37322;DHT22;23697;48.684;9.032;2023-04-16T01:33:56;6.70;90.90
37322;DHT22;23697;48.684;9.032;2023-04-16T01:36:22;6.60;90.90
37322;DHT22;23697;48.684;9.032;2023-04-16T01:38:51;6.70;90.90
37322;DHT22;23697;48.684;9.032;2023-04-16T01:41:17;6.70;90.90
37322;DHT22;23697;48.684;9.032;2023-04-16T01:43:44;6.70;91.00
37322;DHT22;23697;48.684;9.032;2023-04-16T01:46:11;6.70;90.90
37322;DHT22;23697;48.684;9.032;2023-04-16T01:48:38;6.70;90.90
37322;DHT22;23697;48.684;9.032;2023-04-16T01:51:05;6.60;90.90
37322;DHT22;23697;48.684;9.032;2023-04-16T01:53:32;6.70;90.90
37322;DHT22;23697;48.684;9.032;2023-04-16T01:56:00;6.70;91.00
37322;DHT22;23697;48.684;9.032;2023-04-16T01:58:27;6.70;91.00
37322;DHT22;23697;48.684;9.032;2023-04-16T02:00:53;6.60;90.90
37322;DHT22;23697;48.684;9.032;2023-04-16T02:03:20;6.60;90.90
37322;DHT22;23697;48.684;9.032;2023-04-16T02:05:49;6.60;91.00
37322;DHT22;23697;48.684;9.032;2023-04-16T02:08:15;6.70;91.00
37322;DHT22;23697;48.684;9.032;2023-04-16T02:10:44;6.60;91.00
37322;DHT22;23697;48.684;9.032;2023-04-16T02:13:12;6.70;91.00
37322;DHT22;23697;48.684;9.032;2023-04-16T02:15:38;6.60;91.00
37322;DHT22;23697;48.684;9.032;2023-04-16T02:18:05;6.70;91.00
37322;DHT22;23697;48.684;9.032;2023-04-16T02:20:32;6.70;91.00
37322;DHT22;23697;48.684;9.032;2023-04-16T02:22:58;6.60;91.00
37322;DHT22;23697;48.684;9.032;2023-04-16T02:25:25;6.60;91.00
37322;DHT22;23697;48.684;9.032;2023-04-16T02:27:51;6.60;91.00
37322;DHT22;23697;48.684;9.032;2023-04-16T02:30:20;6.70;91.10
37322;DHT22;23697;48.684;9.032;2023-04-16T02:32:46;6.60;91.10
37322;DHT22;23697;48.684;9.032;2023-04-16T02:35:13;6.70;91.00
37322;DHT22;23697;48.684;9.032;2023-04-16T02:37:40;6.70;91.10
37322;DHT22;23697;48.684;9.032;2023-04-16T02:40:07;6.60;91.10
37322;DHT22;23697;48.684;9.032;2023-04-16T02:42:35;6.70;91.10
37322;DHT22;23697;48.684;9.032;2023-04-16T02:45:01;6.70;91.10
37322;DHT22;23697;48.684;9.032;2023-04-16T02:47:29;6.70;91.10
37322;DHT22;23697;48.684;9.032;2023-04-16T02:49:56;6.70;91.10
37322;DHT22;23697;48.684;9.032;2023-04-16T02:52:23;6.60;91.10
37322;DHT22;23697;48.684;9.032;2023-04-16T02:54:49;6.70;91.10
37322;DHT22;23697;48.684;9.032;2023-04-16T02:57:16;6.70;91.10
37322;DHT22;23697;48.684;9.032;2023-04-16T02:59:43;6.60;91.10
37322;DHT22;23697;48.684;9.032;2023-04-16T03:02:09;6.70;91.20
37322;DHT22;23697;48.684;9.032;2023-04-16T03:04:38;6.70;91.10
37322;DHT22;23697;48.684;9.032;2023-04-16T03:07:04;6.60;91.10
37322;DHT22;23697;48.684;9.032;2023-04-16T03:09:32;6.60;91.10
37322;DHT22;23697;48.684;9.032;2023-04-16T03:11:58;6.60;91.10
37322;DHT22;23697;48.684;9.032;2023-04-16T03:14:26;6.70;91.20
37322;DHT22;23697;48.684;9.032;2023-04-16T03:16:52;6.60;91.20
37322;DHT22;23697;48.684;9.032;2023-04-16T03:19:19;6.60;91.10
37322;DHT22;23697;48.684;9.032;2023-04-16T03:21:47;6.60;91.20
37322;DHT22;23697;48.684;9.032;2023-04-16T03:24:14;6.60;91.20
37322;DHT22;23697;48.684;9.032;2023-04-16T03:26:40;6.50;91.20
37322;DHT22;23697;48.684;9.032;2023-04-16T03:29:07;6.60;91.20
37322;DHT22;23697;48.684;9.032;2023-04-16T03:31:34;6.50;91.20
37322;DHT22;23697;48.684;9.032;2023-04-16T03:34:01;6.60;91.20
37322;DHT22;23697;48.684;9.032;2023-04-16T03:36:27;6.50;91.20
37322;DHT22;23697;48.684;9.032;2023-04-16T03:38:55;6.60;91.20
37322;DHT22;23697;48.684;9.032;2023-04-16T03:41:22;6.60;91.30
37322;DHT22;23697;48.684;9.032;2023-04-16T03:43:49;6.60;91.30
37322;DHT22;23697;48.684;9.032;2023-04-16T03:46:15;6.60;91.30
37322;DHT22;23697;48.684;9.032;2023-04-16T03:48:42;6.60;91.20
37322;DHT22;23697;48.684;9.032;2023-04-16T03:51:08;6.60;91.20
37322;DHT22;23697;48.684;9.032;2023-04-16T03:53:35;6.60;91.20
37322;DHT22;23697;48.684;9.032;2023-04-16T03:56:03;6.60;91.20
37322;DHT22;23697;48.684;9.032;2023-04-16T03:58:30;6.60;91.20
37322;DHT22;23697;48.684;9.032;2023-04-16T04:00:57;6.50;91.20
37322;DHT22;23697;48.684;9.032;2023-04-16T04:03:23;6.50;91.20
37322;DHT22;23697;48.684;9.032;2023-04-16T04:05:50;6.60;91.30
37322;DHT22;23697;48.684;9.032;2023-04-16T04:08:17;6.60;91.30
37322;DHT22;23697;48.684;9.032;2023-04-16T04:10:44;6.50;91.20
37322;DHT22;23697;48.684;9.032;2023-04-16T04:13:12;6.50;91.20
37322;DHT22;23697;48.684;9.032;2023-04-16T04:15:39;6.50;91.20
37322;DHT22;23697;48.684;9.032;2023-04-16T04:18:05;6.60;91.20
37322;DHT22;23697;48.684;9.032;2023-04-16T04:20:32;6.60;91.20
37322;DHT22;23697;48.684;9.032;2023-04-16T04:22:58;6.50;91.20
37322;DHT22;23697;48.684;9.032;2023-04-16T04:25:25;6.50;91.20
37322;DHT22;23697;48.684;9.032;2023-04-16T04:27:52;6.40;91.20
37322;DHT22;23697;48.684;9.032;2023-04-16T04:30:20;6.50;91.30
37322;DHT22;23697;48.684;9.032;2023-04-16T04:32:46;6.50;91.20
37322;DHT22;23697;48.684;9.032;2023-04-16T04:35:13;6.50;91.30
37322;DHT22;23697;48.684;9.032;2023-04-16T04:37:40;6.50;91.30
37322;DHT22;23697;48.684;9.032;2023-04-16T04:40:07;6.40;91.30
37322;DHT22;23697;48.684;9.032;2023-04-16T04:42:34;6.50;91.30
37322;DHT22;23697;48.684;9.032;2023-04-16T04:45:00;6.50;91.30
37322;DHT22;23697;48.684;9.032;2023-04-16T04:47:28;6.50;91.30
37322;DHT22;23697;48.684;9.032;2023-04-16T04:49:55;6.50;91.30
37322;DHT22;23697;48.684;9.032;2023-04-16T04:52:22;6.50;91.30
37322;DHT22;23697;48.684;9.032;2023-04-16T04:54:48;6.60;91.30
37322;DHT22;23697;48.684;9.032;2023-04-16T04:57:15;6.40;91.20
37322;DHT22;23697;48.684;9.032;2023-04-16T04:59:42;6.50;91.30
37322;DHT22;23697;48.684;9.032;2023-04-16T05:02:08;6.40;91.20
37322;DHT22;23697;48.684;9.032;2023-04-16T05:04:36;6.50;91.30
37322;DHT22;23697;48.684;9.032;2023-04-16T05:07:03;6.50;91.30
37322;DHT22;23697;48.684;9.032;2023-04-16T05:09:30;6.50;91.30
37322;DHT22;23697;48.684;9.032;2023-04-16T05:11:57;6.40;91.30
37322;DHT22;23697;48.684;9.032;2023-04-16T05:14:24;6.50;91.30
37322;DHT22;23697;48.684;9.032;2023-04-16T05:16:50;6.50;91.30
37322;DHT22;23697;48.684;9.032;2023-04-16T05:19:18;6.40;91.30
37322;DHT22;23697;48.684;9.032;2023-04-16T05:21:46;6.50;91.30
37322;DHT22;23697;48.684;9.032;2023-04-16T05:24:13;6.50;91.30
37322;DHT22;23697;48.684;9.032;2023-04-16T05:26:39;6.50;91.40
37322;DHT22;23697;48.684;9.032;2023-04-16T05:29:06;6.50;91.40
37322;DHT22;23697;48.684;9.032;2023-04-16T05:31:32;6.40;91.40
37322;DHT22;23697;48.684;9.032;2023-04-16T05:34:00;6.50;91.40
37322;DHT22;23697;48.684;9.032;2023-04-16T05:36:27;6.40;91.40
37322;DHT22;23697;48.684;9.032;2023-04-16T05:38:55;6.60;91.50
37322;DHT22;23697;48.684;9.032;2023-04-16T05:41:22;6.50;91.50
37322;DHT22;23697;48.684;9.032;2023-04-16T05:43:48;6.40;91.50
37322;DHT22;23697;48.684;9.032;2023-04-16T05:46:15;6.40;91.50
37322;DHT22;23697;48.684;9.032;2023-04-16T05:48:42;6.40;91.50
37322;DHT22;23697;48.684;9.032;2023-04-16T05:51:08;6.50;91.60
37322;DHT22;23697;48.684;9.032;2023-04-16T05:53:35;6.50;91.60
37322;DHT22;23697;48.684;9.032;2023-04-16T05:56:03;6.50;91.60
37322;DHT22;23697;48.684;9.032;2023-04-16T05:58:30;6.50;91.70
37322;DHT22;23697;48.684;9.032;2023-04-16T06:00:56;6.40;91.60
37322;DHT22;23697;48.684;9.032;2023-04-16T06:03:23;6.50;91.70
37322;DHT22;23697;48.684;9.032;2023-04-16T06:05:50;6.40;91.70
37322;DHT22;23697;48.684;9.032;2023-04-16T06:08:16;6.50;91.70
37322;DHT22;23697;48.684;9.032;2023-04-16T06:10:44;6.50;91.70
37322;DHT22;23697;48.684;9.032;2023-04-16T06:13:12;6.50;91.80
37322;DHT22;23697;48.684;9.032;2023-04-16T06:15:40;6.30;91.80
37322;DHT22;23697;48.684;9.032;2023-04-16T06:18:06;6.40;91.80
37322;DHT22;23697;48.684;9.032;2023-04-16T06:20:33;6.40;91.80
37322;DHT22;23697;48.684;9.032;2023-04-16T06:22:59;6.30;91.80
37322;DHT22;23697;48.684;9.032;2023-04-16T06:25:26;6.40;91.90
37322;DHT22;23697;48.684;9.032;2023-04-16T06:27:53;6.30;91.80
37322;DHT22;23697;48.684;9.032;2023-04-16T06:30:21;6.40;91.90
37322;DHT22;23697;48.684;9.032;2023-04-16T06:32:47;6.30;91.90
37322;DHT22;23697;48.684;9.032;2023-04-16T06:35:14;6.40;91.90
37322;DHT22;23697;48.684;9.032;2023-04-16T06:37:41;6.50;91.90
37322;DHT22;23697;48.684;9.032;2023-04-16T06:40:08;6.50;91.90
37322;DHT22;23697;48.684;9.032;2023-04-16T06:42:34;6.40;91.90
37322;DHT22;23697;48.684;9.032;2023-04-16T06:45:01;6.50;91.90
37322;DHT22;23697;48.684;9.032;2023-04-16T06:47:29;6.40;91.90
37322;DHT22;23697;48.684;9.032;2023-04-16T06:49:56;6.40;92.00
37322;DHT22;23697;48.684;9.032;2023-04-16T06:52:23;6.50;92.00
37322;DHT22;23697;48.684;9.032;2023-04-16T06:54:49;6.50;92.00
37322;DHT22;23697;48.684;9.032;2023-04-16T06:57:16;6.50;92.10
37322;DHT22;23697;48.684;9.032;2023-04-16T06:59:48;6.60;92.10
37322;DHT22;23697;48.684;9.032;2023-04-16T07:02:14;6.50;92.10
37322;DHT22;23697;48.684;9.032;2023-04-16T07:04:42;6.50;92.10
37322;DHT22;23697;48.684;9.032;2023-04-16T07:07:09;6.50;92.10
37322;DHT22;23697;48.684;9.032;2023-04-16T07:09:36;6.50;92.10
37322;DHT22;23697;48.684;9.032;2023-04-16T07:12:03;6.50;92.10
37322;DHT22;23697;48.684;9.032;2023-04-16T07:14:29;6.50;92.10
37322;DHT22;23697;48.684;9.032;2023-04-16T07:16:56;6.60;92.10
37322;DHT22;23697;48.684;9.032;2023-04-16T07:19:23;6.50;92.10
37322;DHT22;23697;48.684;9.032;2023-04-16T07:21:51;6.60;92.00
37322;DHT22;23697;48.684;9.032;2023-04-16T07:24:18;6.50;91.90
37322;DHT22;23697;48.684;9.032;2023-04-16T07:26:45;6.60;92.00
37322;DHT22;23697;48.684;9.032;2023-04-16T07:29:11;6.50;91.90
37322;DHT22;23697;48.684;9.032;2023-04-16T07:31:38;6.60;91.90
37322;DHT22;23697;48.684;9.032;2023-04-16T07:34:04;6.60;91.90
37322;DHT22;23697;48.684;9.032;2023-04-16T07:36:36;6.60;91.90
37322;DHT22;23697;48.684;9.032;2023-04-16T07:39:04;6.60;91.80
37322;DHT22;23697;48.684;9.032;2023-04-16T07:41:31;6.60;91.80
37322;DHT22;23697;48.684;9.032;2023-04-16T07:43:57;6.60;91.80
37322;DHT22;23697;48.684;9.032;2023-04-16T07:46:24;6.60;91.80
37322;DHT22;23697;48.684;9.032;2023-04-16T07:48:51;6.60;91.80
37322;DHT22;23697;48.684;9.032;2023-04-16T07:51:17;6.70;91.80
37322;DHT22;23697;48.684;9.032;2023-04-16T07:53:44;6.70;91.80
37322;DHT22;23697;48.684;9.032;2023-04-16T07:56:12;6.70;91.80
37322;DHT22;23697;48.684;9.032;2023-04-16T07:58:39;6.70;91.80
37322;DHT22;23697;48.684;9.032;2023-04-16T08:01:05;6.70;91.70
37322;DHT22;23697;48.684;9.032;2023-04-16T08:03:32;6.70;91.70
37322;DHT22;23697;48.684;9.032;2023-04-16T08:05:59;6.70;91.70
37322;DHT22;23697;48.684;9.032;2023-04-16T08:08:26;6.80;91.60
37322;DHT22;23697;48.684;9.032;2023-04-16T08:10:53;6.80;91.60
37322;DHT22;23697;48.684;9.032;2023-04-16T08:13:22;6.80;91.60
37322;DHT22;23697;48.684;9.032;2023-04-16T08:15:49;6.70;91.50
37322;DHT22;23697;48.684;9.032;2023-04-16T08:18:15;6.70;91.50
37322;DHT22;23697;48.684;9.032;2023-04-16T08:20:42;6.60;91.40
37322;DHT22;23697;48.684;9.032;2023-04-16T08:23:09;6.70;91.40
37322;DHT22;23697;48.684;9.032;2023-04-16T08:25:35;6.70;91.40
37322;DHT22;23697;48.684;9.032;2023-04-16T08:28:02;6.80;91.50
37322;DHT22;23697;48.684;9.032;2023-04-16T08:30:30;6.80;91.50
37322;DHT22;23697;48.684;9.032;2023-04-16T08:32:57;6.70;91.40
37322;DHT22;23697;48.684;9.032;2023-04-16T08:35:23;6.90;91.50
37322;DHT22;23697;48.684;9.032;2023-04-16T08:37:50;6.80;91.30
37322;DHT22;23697;48.684;9.032;2023-04-16T08:40:18;6.80;91.20
37322;DHT22;23697;48.684;9.032;2023-04-16T08:42:45;6.80;91.10
37322;DHT22;23697;48.684;9.032;2023-04-16T08:45:13;6.90;91.20
37322;DHT22;23697;48.684;9.032;2023-04-16T08:47:43;6.90;91.10
37322;DHT22;23697;48.684;9.032;2023-04-16T08:50:10;6.70;91.00
37322;DHT22;23697;48.684;9.032;2023-04-16T08:55:09;6.80;91.10
37322;DHT22;23697;48.684;9.032;2023-04-16T08:57:38;6.90;91.10
37322;DHT22;23697;48.684;9.032;2023-04-16T09:00:06;6.90;91.10
37322;DHT22;23697;48.684;9.032;2023-04-16T09:02:34;6.80;91.00
37322;DHT22;23697;48.684;9.032;2023-04-16T09:05:03;6.70;90.90
37322;DHT22;23697;48.684;9.032;2023-04-16T09:07:31;6.80;90.90
37322;DHT22;23697;48.684;9.032;2023-04-16T09:09:59;7.00;90.90
37322;DHT22;23697;48.684;9.032;2023-04-16T09:12:26;7.00;90.90
37322;DHT22;23697;48.684;9.032;2023-04-16T09:14:53;7.10;90.90
37322;DHT22;23697;48.684;9.032;2023-04-16T09:17:21;7.30;90.90
37322;DHT22;23697;48.684;9.032;2023-04-16T09:19:48;7.30;90.80
37322;DHT22;23697;48.684;9.032;2023-04-16T09:22:16;7.20;90.70
37322;DHT22;23697;48.684;9.032;2023-04-16T09:24:43;7.40;90.80
37322;DHT22;23697;48.684;9.032;2023-04-16T09:27:10;7.40;90.70
37322;DHT22;23697;48.684;9.032;2023-04-16T09:29:38;7.40;90.70
37322;DHT22;23697;48.684;9.032;2023-04-16T09:32:05;7.40;90.70
37322;DHT22;23697;48.684;9.032;2023-04-16T09:34:33;7.50;90.60
37322;DHT22;23697;48.684;9.032;2023-04-16T09:37:16;7.50;90.50
37322;DHT22;23697;48.684;9.032;2023-04-16T09:39:44;7.40;90.30
37322;DHT22;23697;48.684;9.032;2023-04-16T09:42:11;7.40;90.30
37322;DHT22;23697;48.684;9.032;2023-04-16T09:44:37;7.30;90.20
37322;DHT22;23697;48.684;9.032;2023-04-16T09:47:05;7.20;90.30
37322;DHT22;23697;48.684;9.032;2023-04-16T09:49:33;7.30;90.20
37322;DHT22;23697;48.684;9.032;2023-04-16T09:52:00;7.30;90.20
37322;DHT22;23697;48.684;9.032;2023-04-16T09:54:29;7.40;90.20
37322;DHT22;23697;48.684;9.032;2023-04-16T09:56:55;7.40;90.30
37322;DHT22;23697;48.684;9.032;2023-04-16T09:59:23;7.30;90.30
37322;DHT22;23697;48.684;9.032;2023-04-16T10:01:49;7.30;90.30
37322;DHT22;23697;48.684;9.032;2023-04-16T10:04:18;7.30;90.40
37322;DHT22;23697;48.684;9.032;2023-04-16T10:06:46;7.30;90.40
37322;DHT22;23697;48.684;9.032;2023-04-16T10:09:32;7.40;90.50
37322;DHT22;23697;48.684;9.032;2023-04-16T10:12:02;7.40;90.50
37322;DHT22;23697;48.684;9.032;2023-04-16T10:14:29;7.40;90.50
37322;DHT22;23697;48.684;9.032;2023-04-16T10:16:57;7.40;90.40
37322;DHT22;23697;48.684;9.032;2023-04-16T10:19:24;7.30;90.30
37322;DHT22;23697;48.684;9.032;2023-04-16T10:21:51;7.30;90.30
37322;DHT22;23697;48.684;9.032;2023-04-16T10:24:18;7.40;90.40
37322;DHT22;23697;48.684;9.032;2023-04-16T10:26:46;7.40;90.40
37322;DHT22;23697;48.684;9.032;2023-04-16T10:29:15;7.50;90.30
37322;DHT22;23697;48.684;9.032;2023-04-16T10:31:47;7.50;90.30
37322;DHT22;23697;48.684;9.032;2023-04-16T10:34:23;7.50;90.30
37322;DHT22;23697;48.684;9.032;2023-04-16T10:36:53;7.60;90.40
37322;DHT22;23697;48.684;9.032;2023-04-16T10:39:20;7.60;90.40
37322;DHT22;23697;48.684;9.032;2023-04-16T10:41:49;7.50;90.30
37322;DHT22;23697;48.684;9.032;2023-04-16T10:44:16;7.50;90.30
37322;DHT22;23697;48.684;9.032;2023-04-16T10:46:43;7.40;90.20
37322;DHT22;23697;48.684;9.032;2023-04-16T10:49:14;7.50;90.30
37322;DHT22;23697;48.684;9.032;2023-04-16T10:51:42;7.50;90.30
37322;DHT22;23697;48.684;9.032;2023-04-16T10:54:22;7.40;90.30
37322;DHT22;23697;48.684;9.032;2023-04-16T10:56:51;7.40;90.20
37322;DHT22;23697;48.684;9.032;2023-04-16T10:59:18;7.40;90.20
37322;DHT22;23697;48.684;9.032;2023-04-16T11:01:45;7.50;90.10
37322;DHT22;23697;48.684;9.032;2023-04-16T11:04:25;7.60;90.20
37322;DHT22;23697;48.684;9.032;2023-04-16T11:09:41;7.60;90.20
37322;DHT22;23697;48.684;9.032;2023-04-16T11:12:09;7.60;90.10
37322;DHT22;23697;48.684;9.032;2023-04-16T11:14:37;7.60;90.00
37322;DHT22;23697;48.684;9.032;2023-04-16T11:17:04;7.60;90.10
37322;DHT22;23697;48.684;9.032;2023-04-16T11:19:31;7.60;89.90
37322;DHT22;23697;48.684;9.032;2023-04-16T11:21:58;7.70;90.00
37322;DHT22;23697;48.684;9.032;2023-04-16T11:24:28;7.70;90.10
37322;DHT22;23697;48.684;9.032;2023-04-16T11:26:54;7.70;90.00
37322;DHT22;23697;48.684;9.032;2023-04-16T11:29:23;7.70;89.90
37322;DHT22;23697;48.684;9.032;2023-04-16T11:31:49;7.70;89.80
37322;DHT22;23697;48.684;9.032;2023-04-16T11:34:17;7.60;89.50
37322;DHT22;23697;48.684;9.032;2023-04-16T11:36:43;7.70;89.50
37322;DHT22;23697;48.684;9.032;2023-04-16T11:39:10;7.70;89.60
37322;DHT22;23697;48.684;9.032;2023-04-16T11:41:41;7.80;89.80
37322;DHT22;23697;48.684;9.032;2023-04-16T11:44:17;7.90;89.70
37322;DHT22;23697;48.684;9.032;2023-04-16T11:46:45;7.90;89.60
37322;DHT22;23697;48.684;9.032;2023-04-16T11:49:12;7.90;89.60
37322;DHT22;23697;48.684;9.032;2023-04-16T11:51:39;8.00;89.70
37322;DHT22;23697;48.684;9.032;2023-04-16T11:54:06;8.10;89.60
37322;DHT22;23697;48.684;9.032;2023-04-16T11:56:34;8.10;89.70
37322;DHT22;23697;48.684;9.032;2023-04-16T11:59:05;8.10;89.80
37322;DHT22;23697;48.684;9.032;2023-04-16T12:01:32;8.10;89.60
37322;DHT22;23697;48.684;9.032;2023-04-16T12:04:01;8.20;89.60
37322;DHT22;23697;48.684;9.032;2023-04-16T12:06:29;8.30;89.50
37322;DHT22;23697;48.684;9.032;2023-04-16T12:08:57;8.30;89.40
37322;DHT22;23697;48.684;9.032;2023-04-16T12:11:36;8.30;89.40
37322;DHT22;23697;48.684;9.032;2023-04-16T12:14:06;8.30;89.10
37322;DHT22;23697;48.684;9.032;2023-04-16T12:16:33;8.40;89.20
37322;DHT22;23697;48.684;9.032;2023-04-16T12:19:04;8.60;89.30
37322;DHT22;23697;48.684;9.032;2023-04-16T12:21:37;8.60;89.30
37322;DHT22;23697;48.684;9.032;2023-04-16T12:24:05;8.60;89.20
37322;DHT22;23697;48.684;9.032;2023-04-16T12:26:36;8.60;89.20
37322;DHT22;23697;48.684;9.032;2023-04-16T12:29:15;8.50;89.10
37322;DHT22;23697;48.684;9.032;2023-04-16T12:31:42;8.50;89.20
37322;DHT22;23697;48.684;9.032;2023-04-16T12:34:10;8.50;89.10
37322;DHT22;23697;48.684;9.032;2023-04-16T12:36:38;8.50;89.10
37322;DHT22;23697;48.684;9.032;2023-04-16T12:39:04;8.50;89.00
37322;DHT22;23697;48.684;9.032;2023-04-16T12:41:31;8.50;89.00
37322;DHT22;23697;48.684;9.032;2023-04-16T12:44:02;8.50;88.70
37322;DHT22;23697;48.684;9.032;2023-04-16T12:46:29;8.40;88.80
37322;DHT22;23697;48.684;9.032;2023-04-16T12:48:56;8.40;88.80
37322;DHT22;23697;48.684;9.032;2023-04-16T12:51:24;8.30;88.90
37322;DHT22;23697;48.684;9.032;2023-04-16T12:53:51;8.40;89.00
37322;DHT22;23697;48.684;9.032;2023-04-16T12:56:17;8.40;88.80
37322;DHT22;23697;48.684;9.032;2023-04-16T12:58:44;8.40;88.90
37322;DHT22;23697;48.684;9.032;2023-04-16T13:01:11;8.50;89.00
37322;DHT22;23697;48.684;9.032;2023-04-16T13:03:37;8.50;89.10
37322;DHT22;23697;48.684;9.032;2023-04-16T13:06:06;8.50;89.10
37322;DHT22;23697;48.684;9.032;2023-04-16T13:08:34;8.50;89.10
37322;DHT22;23697;48.684;9.032;2023-04-16T13:11:01;8.50;89.20
37322;DHT22;23697;48.684;9.032;2023-04-16T13:13:28;8.60;89.30
37322;DHT22;23697;48.684;9.032;2023-04-16T13:15:55;8.60;89.20
37322;DHT22;23697;48.684;9.032;2023-04-16T13:18:22;8.40;89.20
37322;DHT22;23697;48.684;9.032;2023-04-16T13:20:48;8.50;89.20
37322;DHT22;23697;48.684;9.032;2023-04-16T13:23:15;8.30;89.10
37322;DHT22;23697;48.684;9.032;2023-04-16T13:25:43;8.30;89.20
37322;DHT22;23697;48.684;9.032;2023-04-16T13:28:10;8.30;89.10
37322;DHT22;23697;48.684;9.032;2023-04-16T13:30:36;8.30;89.10
37322;DHT22;23697;48.684;9.032;2023-04-16T13:33:03;8.40;89.30
37322;DHT22;23697;48.684;9.032;2023-04-16T13:35:30;8.40;89.30
37322;DHT22;23697;48.684;9.032;2023-04-16T13:37:56;8.50;89.40
37322;DHT22;23697;48.684;9.032;2023-04-16T13:40:23;8.40;89.40
37322;DHT22;23697;48.684;9.032;2023-04-16T13:42:51;8.50;89.40
37322;DHT22;23697;48.684;9.032;2023-04-16T13:45:18;8.50;89.50
37322;DHT22;23697;48.684;9.032;2023-04-16T13:47:45;8.50;89.30
37322;DHT22;23697;48.684;9.032;2023-04-16T13:50:12;8.40;89.10
37322;DHT22;23697;48.684;9.032;2023-04-16T13:52:39;8.40;89.20
37322;DHT22;23697;48.684;9.032;2023-04-16T13:55:05;8.30;89.20
37322;DHT22;23697;48.684;9.032;2023-04-16T13:57:33;8.40;89.30
37322;DHT22;23697;48.684;9.032;2023-04-16T14:00:02;8.30;89.30
37322;DHT22;23697;48.684;9.032;2023-04-16T14:02:29;8.40;89.40
37322;DHT22;23697;48.684;9.032;2023-04-16T14:04:55;8.40;89.40
37322;DHT22;23697;48.684;9.032;2023-04-16T14:07:22;8.30;89.30
37322;DHT22;23697;48.684;9.032;2023-04-16T14:09:51;8.30;89.20
37322;DHT22;23697;48.684;9.032;2023-04-16T14:12:17;8.20;89.20
37322;DHT22;23697;48.684;9.032;2023-04-16T14:14:44;8.30;89.30
37322;DHT22;23697;48.684;9.032;2023-04-16T14:17:12;8.30;89.20
37322;DHT22;23697;48.684;9.032;2023-04-16T14:19:39;8.30;89.30
37322;DHT22;23697;48.684;9.032;2023-04-16T14:22:06;8.30;89.30
37322;DHT22;23697;48.684;9.032;2023-04-16T14:24:33;8.30;89.40
37322;DHT22;23697;48.684;9.032;2023-04-16T14:27:00;8.20;89.40
37322;DHT22;23697;48.684;9.032;2023-04-16T14:29:31;8.10;89.30
37322;DHT22;23697;48.684;9.032;2023-04-16T14:32:00;8.20;89.50
37322;DHT22;23697;48.684;9.032;2023-04-16T14:34:29;8.20;89.40
37322;DHT22;23697;48.684;9.032;2023-04-16T14:36:56;8.20;89.30
37322;DHT22;23697;48.684;9.032;2023-04-16T14:39:24;8.10;89.30
37322;DHT22;23697;48.684;9.032;2023-04-16T14:41:51;8.10;89.40
37322;DHT22;23697;48.684;9.032;2023-04-16T14:44:18;8.10;89.60
37322;DHT22;23697;48.684;9.032;2023-04-16T14:46:45;8.10;89.60
37322;DHT22;23697;48.684;9.032;2023-04-16T14:49:11;8.10;89.50
37322;DHT22;23697;48.684;9.032;2023-04-16T14:51:41;7.90;89.50
37322;DHT22;23697;48.684;9.032;2023-04-16T14:54:09;7.90;89.60
37322;DHT22;23697;48.684;9.032;2023-04-16T14:56:37;8.00;89.60
37322;DHT22;23697;48.684;9.032;2023-04-16T14:59:04;7.90;89.70
37322;DHT22;23697;48.684;9.032;2023-04-16T15:01:31;8.00;89.70
37322;DHT22;23697;48.684;9.032;2023-04-16T15:03:58;7.90;89.70
37322;DHT22;23697;48.684;9.032;2023-04-16T15:06:27;7.90;89.80
37322;DHT22;23697;48.684;9.032;2023-04-16T15:08:55;8.00;89.90
37322;DHT22;23697;48.684;9.032;2023-04-16T15:11:21;7.90;89.80
37322;DHT22;23697;48.684;9.032;2023-04-16T15:13:48;7.90;89.90
37322;DHT22;23697;48.684;9.032;2023-04-16T15:16:15;8.00;89.90
37322;DHT22;23697;48.684;9.032;2023-04-16T15:18:42;7.80;90.00
37322;DHT22;23697;48.684;9.032;2023-04-16T15:21:14;7.90;90.10
37322;DHT22;23697;48.684;9.032;2023-04-16T15:23:41;7.80;90.10
37322;DHT22;23697;48.684;9.032;2023-04-16T15:26:10;7.90;90.20
37322;DHT22;23697;48.684;9.032;2023-04-16T15:28:37;7.80;90.20
37322;DHT22;23697;48.684;9.032;2023-04-16T15:31:05;7.90;90.20
37322;DHT22;23697;48.684;9.032;2023-04-16T15:33:32;7.80;90.20
37322;DHT22;23697;48.684;9.032;2023-04-16T15:35:59;7.70;90.30
37322;DHT22;23697;48.684;9.032;2023-04-16T15:38:27;7.80;90.40
37322;DHT22;23697;48.684;9.032;2023-04-16T15:40:56;7.70;90.50
37322;DHT22;23697;48.684;9.032;2023-04-16T15:43:26;7.60;90.60
37322;DHT22;23697;48.684;9.032;2023-04-16T15:45:55;7.60;90.60
37322;DHT22;23697;48.684;9.032;2023-04-16T15:48:22;7.80;90.70
37322;DHT22;23697;48.684;9.032;2023-04-16T15:50:49;7.70;90.70